This is the latest recevied weather packets stored in our database for station/object CT2IRJ-11. If no packets are shown the sender has not sent any weather packets the latest 10 day(s).
| Time | Temp. | Humidity | Pressure | Rain* | Wind** | Luminosity | Snow |
|---|---|---|---|---|---|---|---|
| 1777123109 | 28.33° C | 47% | 1014.9 hPa | 0 mm | - | 728 W/m² | - |
| 1777122809 | 28.33° C | 45% | 1014.9 hPa | 0 mm | - | 779 W/m² | - |
| 1777122510 | 28.89° C | 45% | 1014.9 hPa | 0 mm | - | 767 W/m² | - |
| 1777122210 | 29.44° C | 44% | 1014.9 hPa | 0 mm | - | 697 W/m² | - |
| 1777121910 | 28.89° C | 44% | 1014.9 hPa | 0 mm | - | 636 W/m² | - |
| 1777121610 | 28.33° C | 46% | 1014.9 hPa | 0 mm | - | 668 W/m² | - |
| 1777121309 | 28.89° C | 44% | 1014.9 hPa | 0 mm | - | 713 W/m² | - |
| 1777121010 | 28.33° C | 46% | 1014.9 hPa | 0 mm | - | 676 W/m² | - |
| 1777120711 | 27.78° C | 47% | 1015.2 hPa | 0 mm | - | 674 W/m² | - |
| 1777120410 | 27.22° C | 47% | 1015.2 hPa | 0 mm | - | 685 W/m² | - |
| 1777120110 | 28.33° C | 46% | 1015.2 hPa | 0 mm | - | 703 W/m² | - |
| 1777119809 | 27.22° C | 48% | 1015.2 hPa | 0 mm | - | 750 W/m² | - |
| 1777119509 | 26.67° C | 51% | 1015.2 hPa | 0 mm | - | 725 W/m² | - |
| 1777119209 | 27.22° C | 47% | 1015.2 hPa | 0 mm | - | 694 W/m² | - |
| 1777118910 | 26.67° C | 50% | 1015.6 hPa | 0 mm | - | 636 W/m² | - |
| 1777118609 | 26.11° C | 52% | 1015.6 hPa | 0 mm | - | 594 W/m² | - |
| 1777118309 | 26.67° C | 51% | 1015.6 hPa | 0 mm | - | 617 W/m² | - |
| 1777118009 | 26.11° C | 52% | 1015.6 hPa | 0 mm | - | 611 W/m² | - |
| 1777117711 | 25.56° C | 54% | 1015.9 hPa | 0 mm | - | 581 W/m² | - |
| 1777117409 | 25.56° C | 52% | 1015.9 hPa | 0 mm | - | 587 W/m² | - |
| 1777117109 | 25° C | 54% | 1015.9 hPa | 0 mm | - | 567 W/m² | - |
| 1777116810 | 25° C | 54% | 1015.9 hPa | 0 mm | - | 572 W/m² | - |
| 1777116510 | 25.56° C | 54% | 1016.3 hPa | 0 mm | - | 598 W/m² | - |
| 1777116210 | 25.56° C | 52% | 1016.3 hPa | 0 mm | - | 592 W/m² | - |
| 1777115909 | 23.89° C | 57% | 1016.3 hPa | 0 mm | - | 597 W/m² | - |
* Rain latest hour (hover to see other rain measurements)
** Current wind speed in m/s (hover to see current wind gust speed)